createdAt,value
2022-10-23T00:02:20.391Z,8.66
2022-10-23T00:07:23.091Z,8.66
2022-10-23T00:12:28.424Z,8.63
2022-10-23T00:17:33.142Z,8.68
2022-10-23T00:22:35.891Z,8.77
2022-10-23T00:27:38.832Z,8.78
2022-10-23T00:32:41.561Z,8.75
2022-10-23T00:37:44.464Z,8.82
2022-10-23T00:42:47.879Z,8.84
2022-10-23T00:47:51.060Z,8.95
2022-10-23T00:52:55.169Z,8.91
2022-10-23T00:57:57.943Z,8.97
2022-10-23T01:03:00.593Z,9.07
2022-10-23T01:08:11.101Z,9.09
2022-10-23T01:13:21.190Z,9.04
2022-10-23T01:18:36.781Z,8.93
2022-10-23T01:23:48.409Z,9.07
2022-10-23T01:29:20.099Z,9.15
2022-10-23T01:34:49.488Z,9.39
2022-10-23T01:39:54.388Z,9.54
2022-10-23T01:45:23.798Z,9.66
2022-10-23T01:50:27.814Z,9.79
2022-10-23T01:55:38.097Z,9.82
2022-10-23T02:00:43.784Z,9.85
2022-10-23T02:05:46.758Z,9.95
2022-10-23T02:10:53.647Z,8.78
2022-10-23T02:16:07.017Z,8.09
2022-10-23T02:21:15.750Z,7.85
2022-10-23T02:26:28.166Z,7.71
2022-10-23T02:31:31.839Z,7.51
2022-10-23T02:36:34.684Z,7.52
2022-10-23T02:41:49.060Z,7.79
2022-10-23T02:47:09.877Z,8.07
2022-10-23T02:52:22.382Z,8.13
2022-10-23T02:57:38.357Z,7.69
2022-10-23T03:02:53.033Z,7.51
2022-10-23T03:07:57.393Z,7.54
2022-10-23T03:13:00.359Z,7.71
2022-10-23T03:18:07.947Z,7.84
2022-10-23T03:23:13.588Z,8.10
2022-10-23T03:28:16.104Z,8.72
2022-10-23T03:33:19.197Z,8.97
2022-10-23T03:38:21.923Z,9.09
2022-10-23T03:43:24.898Z,9.46
2022-10-23T03:48:27.643Z,9.64
2022-10-23T03:53:34.552Z,9.57
2022-10-23T03:58:39.773Z,9.17
2022-10-23T04:03:42.718Z,8.72
2022-10-23T04:08:45.914Z,8.76
2022-10-23T04:13:51.635Z,8.90
2022-10-23T04:18:54.497Z,8.99
2022-10-23T04:23:58.328Z,8.87
2022-10-23T04:29:01.025Z,8.98
2022-10-23T04:39:09.122Z,9.08
2022-10-23T04:44:12.727Z,9.26
2022-10-23T04:49:15.586Z,9.36
2022-10-23T04:54:38.115Z,9.35
2022-10-23T05:00:01.250Z,9.07
2022-10-23T05:05:10.807Z,8.68
2022-10-23T05:10:30.393Z,8.42
2022-10-23T05:15:52.697Z,8.33
2022-10-23T05:21:00.800Z,8.08
2022-10-23T05:26:05.450Z,8.00
2022-10-23T05:31:10.027Z,7.77
2022-10-23T05:36:15.604Z,7.54
2022-10-23T05:41:20.246Z,7.37
2022-10-23T05:46:24.132Z,7.19
2022-10-23T05:51:49.870Z,7.23
2022-10-23T05:57:34.190Z,7.17
2022-10-23T06:02:41.473Z,7.17
2022-10-23T06:08:10.407Z,7.14
2022-10-23T06:13:13.763Z,7.22
2022-10-23T06:18:17.088Z,7.44
2022-10-23T06:23:46.728Z,7.66
2022-10-23T06:28:52.499Z,8.03
2022-10-23T06:33:56.356Z,8.01
2022-10-23T06:44:29.632Z,7.51
2022-10-23T06:49:35.654Z,7.08
2022-10-23T06:54:39.163Z,5.11
2022-10-23T06:59:52.954Z,3.78
2022-10-23T07:04:56.834Z,2.07
2022-10-23T07:09:59.604Z,1.52
2022-10-23T07:15:22.512Z,1.31
2022-10-23T07:20:25.548Z,1.44
2022-10-23T07:25:29.483Z,1.44
2022-10-23T07:30:34.312Z,1.48
2022-10-23T07:35:40.207Z,1.20
2022-10-23T07:40:49.555Z,1.22
2022-10-23T07:45:54.579Z,1.09
2022-10-23T07:51:08.680Z,0.98
2022-10-23T07:56:23.945Z,0.94
2022-10-23T08:01:46.243Z,0.92
2022-10-23T08:06:49.625Z,0.98
2022-10-23T08:11:52.584Z,0.90
2022-10-23T08:16:57.658Z,0.87
2022-10-23T08:22:23.637Z,0.78
2022-10-23T08:27:26.627Z,0.75
2022-10-23T08:32:30.790Z,0.34
2022-10-23T08:37:35.394Z,-0.07
2022-10-23T08:42:39.155Z,-0.20
2022-10-23T08:47:46.106Z,-0.14
2022-10-23T08:52:52.751Z,-0.12
2022-10-23T08:58:04.795Z,-0.06
2022-10-23T09:03:07.606Z,-0.08
2022-10-23T09:08:26.389Z,-0.11
2022-10-23T09:13:41.390Z,-0.13
2022-10-23T09:18:44.272Z,-0.14
2022-10-23T09:23:47.084Z,-0.15
2022-10-23T09:28:52.723Z,-0.20
2022-10-23T09:34:01.313Z,-0.22
2022-10-23T09:39:04.128Z,-0.29
2022-10-23T09:44:27.447Z,-0.40
2022-10-23T09:49:34.241Z,-0.56
2022-10-23T09:54:46.459Z,-0.59
2022-10-23T09:59:54.077Z,-0.54
2022-10-23T10:04:58.285Z,-0.59
2022-10-23T10:10:01.049Z,-0.71
2022-10-23T10:15:13.169Z,-0.61
2022-10-23T10:20:22.069Z,-0.72
2022-10-23T10:25:37.209Z,-0.87
2022-10-23T10:31:10.198Z,-0.91
2022-10-23T10:36:47.574Z,-0.98
2022-10-23T10:42:14.195Z,-0.98
2022-10-23T10:47:32.052Z,-0.97
2022-10-23T10:53:02.715Z,-0.99
2022-10-23T10:58:37.657Z,-1.09
2022-10-23T11:03:50.677Z,-1.07
2022-10-23T11:08:57.944Z,-1.02
2022-10-23T11:14:08.117Z,-1.10
2022-10-23T11:19:26.548Z,-1.03
2022-10-23T11:24:40.751Z,-0.99
2022-10-23T11:29:54.052Z,-0.98
2022-10-23T11:35:15.207Z,-1.04
2022-10-23T11:40:24.941Z,-0.96
2022-10-23T11:45:32.457Z,-0.90
2022-10-23T11:50:51.570Z,-0.87
2022-10-23T11:55:59.636Z,-0.84
2022-10-23T12:01:05.972Z,-0.78
2022-10-23T12:06:21.502Z,-0.77
2022-10-23T12:11:48.895Z,-0.77
2022-10-23T12:16:51.862Z,-0.73
2022-10-23T12:22:02.347Z,-0.73
2022-10-23T12:27:52.273Z,-0.71
2022-10-23T12:33:06.104Z,-0.71
2022-10-23T12:38:15.328Z,-0.68
2022-10-23T12:43:26.766Z,-0.71
2022-10-23T12:48:29.554Z,-0.70
2022-10-23T12:53:52.872Z,-0.65
2022-10-23T12:59:01.451Z,-0.84
2022-10-23T13:04:28.576Z,-0.68
2022-10-23T13:09:34.856Z,-0.70
2022-10-23T13:15:09.199Z,-0.72
2022-10-23T13:20:19.902Z,-0.71
2022-10-23T13:25:33.449Z,-0.69
2022-10-23T13:30:43.181Z,-0.68
2022-10-23T13:36:02.530Z,-0.68
2022-10-23T13:41:07.279Z,-0.63
2022-10-23T13:46:21.652Z,-0.62
2022-10-23T13:51:26.846Z,-0.67
2022-10-23T13:56:30.606Z,-0.60
2022-10-23T14:01:36.313Z,-0.57
2022-10-23T14:06:39.439Z,-0.58
2022-10-23T14:11:42.675Z,-0.61
2022-10-23T14:16:45.431Z,-0.62
2022-10-23T14:21:48.210Z,-0.65
2022-10-23T14:26:51.002Z,-0.61
2022-10-23T14:31:53.770Z,-0.63
2022-10-23T14:37:08.250Z,-0.66
2022-10-23T14:42:11.647Z,-0.69
2022-10-23T14:47:14.417Z,-0.61
2022-10-23T14:52:17.357Z,-0.58
2022-10-23T14:57:22.563Z,-0.59
2022-10-23T15:02:25.097Z,-0.63
2022-10-23T15:07:27.839Z,-0.66
2022-10-23T15:12:30.618Z,-0.69
2022-10-23T15:17:34.497Z,-0.65
2022-10-23T15:22:37.295Z,-0.66
2022-10-23T15:27:40.264Z,-0.69
2022-10-23T15:32:43.711Z,-0.61
2022-10-23T15:37:46.782Z,-0.62
2022-10-23T15:42:50.556Z,-0.62
2022-10-23T15:47:53.320Z,-0.69
2022-10-23T15:52:56.131Z,-0.83
2022-10-23T15:58:02.660Z,-0.70
2022-10-23T16:03:05.441Z,-0.66
2022-10-23T16:08:08.230Z,-0.65
2022-10-23T16:13:11.038Z,-0.70
2022-10-23T16:18:16.396Z,-0.82
2022-10-23T16:23:19.262Z,-0.63
2022-10-23T16:28:22.157Z,-0.67
2022-10-23T16:33:25.018Z,-0.64
2022-10-23T16:38:27.738Z,-0.58
2022-10-23T16:43:31.100Z,-0.59
2022-10-23T16:48:41.872Z,-0.54
2022-10-23T16:53:45.582Z,-0.53
2022-10-23T16:58:48.619Z,-0.63
2022-10-23T17:03:52.722Z,-0.51
2022-10-23T17:08:56.337Z,-0.49
2022-10-23T17:14:07.984Z,-0.58
2022-10-23T17:19:20.602Z,-0.51
2022-10-23T17:24:29.570Z,-0.56
2022-10-23T17:29:32.375Z,-0.48
2022-10-23T17:34:35.091Z,-0.49
2022-10-23T17:39:37.843Z,-0.49
2022-10-23T17:44:40.607Z,-0.42
2022-10-23T17:49:45.493Z,-0.39
2022-10-23T17:54:52.641Z,-0.38
2022-10-23T17:59:55.450Z,-0.42
2022-10-23T18:04:58.183Z,-0.48
2022-10-23T18:10:01.018Z,-0.55
2022-10-23T18:15:05.860Z,-0.42
2022-10-23T18:20:09.065Z,-0.31
2022-10-23T18:25:11.868Z,-0.36
2022-10-23T18:30:15.194Z,-0.37
2022-10-23T18:35:18.262Z,-0.28
2022-10-23T18:40:23.120Z,-0.21
2022-10-23T18:45:28.310Z,-0.21
2022-10-23T18:50:35.352Z,-0.18
2022-10-23T18:55:45.443Z,-0.13
2022-10-23T19:00:48.228Z,-0.18
2022-10-23T19:05:51.757Z,-0.15
2022-10-23T19:10:55.152Z,-0.14
2022-10-23T19:15:57.795Z,-0.10
2022-10-23T19:21:01.750Z,-0.11
2022-10-23T19:26:09.157Z,-0.10
2022-10-23T19:31:12.721Z,-0.16
2022-10-23T19:36:17.508Z,-0.20
2022-10-23T19:41:21.298Z,-0.12
2022-10-23T19:46:24.006Z,-0.08
2022-10-23T19:51:26.805Z,-0.11
2022-10-23T19:56:29.566Z,-0.05
2022-10-23T20:01:32.544Z,-0.05
2022-10-23T20:06:36.187Z,-0.05
2022-10-23T20:11:39.764Z,-0.02
2022-10-23T20:16:45.197Z,-0.04
2022-10-23T20:21:49.450Z,-0.18
2022-10-23T20:26:54.182Z,-0.42
2022-10-23T20:31:56.852Z,-0.46
2022-10-23T20:36:59.619Z,-0.58
2022-10-23T20:42:03.538Z,-0.69
2022-10-23T20:47:06.272Z,-0.88
2022-10-23T20:52:08.933Z,-0.67
2022-10-23T20:57:11.672Z,-0.46
2022-10-23T21:02:14.511Z,-0.45
2022-10-23T21:07:18.562Z,-0.47
2022-10-23T21:12:21.420Z,-0.46
2022-10-23T21:17:24.132Z,-0.56
2022-10-23T21:22:26.958Z,-0.63
2022-10-23T21:27:29.740Z,-0.65
2022-10-23T21:32:32.383Z,-0.74
2022-10-23T21:37:35.039Z,-0.80
2022-10-23T21:42:37.694Z,-0.85
2022-10-23T21:47:40.435Z,-0.72
2022-10-23T21:52:43.495Z,-0.57
2022-10-23T21:57:46.414Z,-0.46
2022-10-23T22:02:49.319Z,-0.36
2022-10-23T22:07:52.345Z,-0.36
2022-10-23T22:12:55.050Z,-0.34
2022-10-23T22:17:59.467Z,-0.26
2022-10-23T22:23:02.251Z,-0.22
2022-10-23T22:28:04.871Z,-0.30
2022-10-23T22:33:07.519Z,-0.28
2022-10-23T22:38:10.153Z,-0.22
2022-10-23T22:43:12.893Z,-0.20
2022-10-23T22:48:15.571Z,-0.12
2022-10-23T22:53:18.268Z,-0.05
2022-10-23T22:58:21.232Z,-0.03
2022-10-23T23:03:23.961Z,-0.12
2022-10-23T23:08:26.841Z,-0.07
2022-10-23T23:13:29.617Z,-0.13
2022-10-23T23:18:32.657Z,-0.11
2022-10-23T23:23:35.412Z,-0.15
2022-10-23T23:28:38.685Z,-0.16
2022-10-23T23:33:42.291Z,-0.40
2022-10-23T23:38:45.148Z,-0.22
2022-10-23T23:43:47.881Z,-0.06
2022-10-23T23:48:50.964Z,-0.11
2022-10-23T23:53:53.973Z,-0.06
2022-10-23T23:58:58.096Z,-0.04
